Time;durP1;ratioP1;P1;durP2;ratioP2;P2;SDS_P1;SDS_P2;PMS_P1;PMS_P2;Temp;Humidity;BMP_temperature;BMP_pressure;BME280_temperature;BME280_humidity;BME280_pressure;Samples;Min_cycle;Max_cycle;Signal;HPM_P1;HPM_P2
2021/10/17 00:00:30;;;;;;;6.50;2.35;;;;;;;5.71;90.56;101418.56;6093251;23;20100;-86
2021/10/17 00:02:58;;;;;;;6.30;1.77;;;;;;;5.77;90.56;101436.88;6070452;23;20022;-86
2021/10/17 00:05:28;;;;;;;4.57;2.35;;;;;;;5.84;90.27;101424.91;6068595;23;20529;-87
2021/10/17 00:07:58;;;;;;;3.17;2.25;;;;;;;5.92;89.88;101428.59;6071443;23;20033;-86
2021/10/17 00:10:30;;;;;;;7.82;2.33;;;;;;;5.98;89.64;101423.53;6070536;23;20035;-87
2021/10/17 00:12:59;;;;;;;9.50;2.30;;;;;;;6.04;89.20;101422.81;6095353;23;20573;-86
2021/10/17 00:15:28;;;;;;;3.55;1.90;;;;;;;6.11;88.67;101429.88;6093168;23;20045;-86
2021/10/17 00:17:57;;;;;;;7.18;2.58;;;;;;;6.17;88.33;101424.81;6071267;23;20077;-87
2021/10/17 00:20:26;;;;;;;3.15;2.25;;;;;;;6.21;88.25;101425.78;6096621;23;20077;-86
2021/10/17 00:22:56;;;;;;;4.22;2.13;;;;;;;6.25;87.82;101417.19;6117539;23;20037;-87
2021/10/17 00:25:25;;;;;;;3.22;2.85;;;;;;;6.29;87.32;101419.00;6096164;23;20021;-87
2021/10/17 00:27:58;;;;;;;9.65;2.95;;;;;;;6.35;87.47;101418.25;6070477;23;20037;-87
2021/10/17 00:30:24;;;;;;;4.82;2.20;;;;;;;6.38;87.25;101418.34;6094588;23;20022;-86
2021/10/17 00:32:53;;;;;;;3.80;2.28;;;;;;;6.39;87.18;101413.16;6069415;23;20029;-86
2021/10/17 00:35:20;;;;;;;5.07;2.67;;;;;;;6.44;86.99;101413.22;6094396;23;20650;-85
2021/10/17 00:37:49;;;;;;;8.40;3.55;;;;;;;6.46;87.04;101412.41;6070850;23;20034;-86
2021/10/17 00:40:19;;;;;;;3.33;1.70;;;;;;;6.51;86.67;101407.31;6070954;23;20025;-87
2021/10/17 00:42:50;;;;;;;3.92;1.83;;;;;;;6.55;86.66;101408.25;6095131;23;20037;-87
2021/10/17 00:45:27;;;;;;;6.45;2.47;;;;;;;6.57;86.45;101406.56;6092155;23;20018;-87
2021/10/17 00:47:55;;;;;;;7.30;2.58;;;;;;;6.59;86.46;101397.06;6072841;23;20032;-87
2021/10/17 00:50:24;;;;;;;4.15;1.80;;;;;;;6.62;86.45;101404.91;6094354;23;20093;-87
2021/10/17 00:52:51;;;;;;;3.17;1.38;;;;;;;6.65;86.16;101401.50;6094916;23;20021;-87
2021/10/17 00:55:19;;;;;;;4.13;2.10;;;;;;;6.67;85.53;101400.69;6094292;23;20014;-87
2021/10/17 00:57:47;;;;;;;2.83;2.00;;;;;;;6.71;85.93;101394.69;6071088;23;20021;-86
2021/10/17 01:00:16;;;;;;;5.35;2.47;;;;;;;6.73;85.75;101390.41;6078993;23;20873;-87
2021/10/17 01:02:44;;;;;;;4.95;1.65;;;;;;;6.73;85.49;101399.94;6092926;23;20018;-87
2021/10/17 01:05:13;;;;;;;4.63;1.90;;;;;;;6.75;85.40;101395.63;6092807;23;20028;-87
2021/10/17 01:07:41;;;;;;;5.10;2.75;;;;;;;6.76;85.32;101389.56;6093797;23;20053;-87
2021/10/17 01:10:08;;;;;;;3.88;1.40;;;;;;;6.79;84.93;101393.13;6095298;23;20021;-87
2021/10/17 01:12:35;;;;;;;4.43;2.03;;;;;;;6.81;84.84;101392.28;6070595;23;20120;-86
2021/10/17 01:15:01;;;;;;;8.52;1.75;;;;;;;6.82;84.70;101389.69;6094926;23;20088;-87
2021/10/17 01:17:28;;;;;;;9.93;2.10;;;;;;;6.83;84.58;101385.38;6060749;23;20026;-87
2021/10/17 01:19:55;;;;;;;3.83;1.63;;;;;;;6.88;84.66;101386.31;6093706;23;20018;-87
2021/10/17 01:22:24;;;;;;;2.25;1.77;;;;;;;6.91;84.30;101386.38;6093416;23;20018;-86
2021/10/17 01:24:53;;;;;;;4.90;2.08;;;;;;;6.92;84.32;101385.53;6093075;23;20060;-86
2021/10/17 01:27:20;;;;;;;7.30;1.80;;;;;;;6.93;83.98;101382.06;6070714;23;20417;-87
2021/10/17 01:29:48;;;;;;;6.80;3.00;;;;;;;6.93;84.01;101371.66;6068536;23;20030;-87
2021/10/17 01:32:15;;;;;;;4.68;2.20;;;;;;;6.93;83.99;101376.88;6068418;23;20030;-86
2021/10/17 01:34:42;;;;;;;6.50;2.25;;;;;;;6.94;84.42;101370.81;6069277;23;20022;-87
2021/10/17 01:37:09;;;;;;;6.45;2.70;;;;;;;6.92;83.88;101364.69;6096750;23;20393;-87
2021/10/17 01:39:36;;;;;;;3.97;1.92;;;;;;;6.93;84.11;101363.84;6070951;23;20411;-86
2021/10/17 01:42:02;;;;;;;2.80;1.83;;;;;;;6.93;84.26;101367.31;6069871;23;20057;-87
2021/10/17 01:44:33;;;;;;;2.95;1.83;;;;;;;6.94;83.96;101363.88;6094288;23;20022;-87
2021/10/17 01:47:01;;;;;;;10.20;3.78;;;;;;;6.97;84.05;101363.06;6093054;23;20343;-87
2021/10/17 01:49:28;;;;;;;3.03;1.67;;;;;;;6.98;83.96;101372.63;6095607;23;20018;-87
2021/10/17 01:51:54;;;;;;;6.90;2.30;;;;;;;6.99;84.03;101370.88;6067445;23;20112;-86
2021/10/17 01:54:23;;;;;;;4.50;1.80;;;;;;;6.98;83.78;101364.81;6070551;23;20022;-86
2021/10/17 01:56:50;;;;;;;6.38;1.88;;;;;;;6.99;83.45;101363.06;6092054;23;20026;-87
2021/10/17 01:59:17;;;;;;;4.40;1.83;;;;;;;7.00;83.52;101365.72;6093987;23;20117;-86
2021/10/17 02:01:46;;;;;;;5.07;2.25;;;;;;;6.99;83.53;101360.47;6069448;23;20025;-86
2021/10/17 02:04:13;;;;;;;4.88;1.88;;;;;;;7.02;83.65;101356.19;6091856;23;20639;-87
2021/10/17 02:06:40;;;;;;;3.33;2.05;;;;;;;7.04;83.75;101362.31;6094367;23;20026;-86
2021/10/17 02:09:06;;;;;;;5.72;1.65;;;;;;;7.05;83.86;101361.47;6091341;23;20394;-86
2021/10/17 02:11:33;;;;;;;5.32;2.13;;;;;;;7.07;83.57;101358.91;6093159;23;20033;-86
2021/10/17 02:14:00;;;;;;;3.10;2.08;;;;;;;7.07;83.77;101359.75;6091991;23;20022;-87
2021/10/17 02:16:27;;;;;;;3.85;2.55;;;;;;;7.08;83.87;101347.63;6069037;23;20443;-87
2021/10/17 02:18:54;;;;;;;8.15;2.60;;;;;;;7.08;84.03;101350.25;6094239;23;20060;-87
2021/10/17 02:21:24;;;;;;;8.00;2.22;;;;;;;7.07;84.10;101341.53;6094374;23;20395;-87
2021/10/17 02:23:51;;;;;;;7.45;1.83;;;;;;;7.09;84.25;101349.38;6069892;23;20509;-86
2021/10/17 02:26:18;;;;;;;3.83;2.45;;;;;;;7.11;84.44;101352.88;6093374;23;20033;-87
2021/10/17 02:28:47;;;;;;;5.22;2.38;;;;;;;7.11;84.33;101345.94;6094377;23;20034;-86
2021/10/17 02:31:14;;;;;;;6.22;2.28;;;;;;;7.13;84.66;101353.78;6097744;23;20034;-85
2021/10/17 02:33:40;;;;;;;8.55;2.35;;;;;;;7.14;84.60;101345.13;6073920;23;20116;-86
2021/10/17 02:36:10;;;;;;;5.13;2.13;;;;;;;7.15;84.70;101352.09;6070843;23;20056;-86
2021/10/17 02:38:37;;;;;;;3.75;2.35;;;;;;;7.16;85.02;101345.13;6095046;23;20021;-86
2021/10/17 02:41:04;;;;;;;5.15;2.72;;;;;;;7.17;85.05;101346.91;6094186;23;20093;-86
2021/10/17 02:43:30;;;;;;;4.45;3.30;;;;;;;7.16;85.00;101347.75;6070047;23;20033;-87
2021/10/17 02:45:57;;;;;;;8.55;2.63;;;;;;;7.17;84.70;101341.69;6070305;23;20033;-86
2021/10/17 02:48:24;;;;;;;9.75;2.28;;;;;;;7.17;85.04;101339.97;6093263;23;20026;-87
2021/10/17 02:50:50;;;;;;;2.53;2.22;;;;;;;7.16;85.43;101337.31;6070693;23;20133;-85
2021/10/17 02:53:17;;;;;;;11.30;2.33;;;;;;;7.16;85.68;101330.41;6091743;23;20751;-87
2021/10/17 02:55:43;;;;;;;8.18;2.40;;;;;;;7.15;85.79;101330.38;6070824;23;20501;-87
2021/10/17 02:58:10;;;;;;;3.03;1.75;;;;;;;7.15;86.04;101326.03;6069853;23;20022;-87
2021/10/17 03:00:37;;;;;;;5.25;2.42;;;;;;;7.16;85.99;101325.19;6092396;23;20049;-87
2021/10/17 03:03:04;;;;;;;4.85;1.92;;;;;;;7.15;85.97;101319.97;6068973;23;20025;-86
2021/10/17 03:05:31;;;;;;;4.60;2.15;;;;;;;7.15;86.03;101320.84;6091548;23;20030;-86
2021/10/17 03:07:57;;;;;;;5.78;1.70;;;;;;;7.16;86.21;101326.91;6094465;23;20025;-86
2021/10/17 03:10:24;;;;;;;3.03;1.80;;;;;;;7.17;86.49;101328.66;6070435;23;20053;-87
2021/10/17 03:12:52;;;;;;;3.45;2.28;;;;;;;7.16;86.39;101322.59;6067866;23;20022;-86
2021/10/17 03:15:22;;;;;;;8.73;2.75;;;;;;;7.19;86.23;101321.78;6091313;23;20025;-86
2021/10/17 03:17:49;;;;;;;12.77;3.50;;;;;;;7.18;86.29;101313.06;6069630;23;20072;-87
2021/10/17 03:20:16;;;;;;;18.90;4.05;;;;;;;7.19;86.12;101307.00;6071013;23;20026;-86
2021/10/17 03:22:42;;;;;;;6.60;2.00;;;;;;;7.22;85.96;101314.00;6071966;23;20042;-87
2021/10/17 03:25:10;;;;;;;3.40;1.73;;;;;;;7.23;85.76;101310.53;6094759;23;20044;-87
2021/10/17 03:27:37;;;;;;;4.32;2.08;;;;;;;7.22;85.90;101312.28;6070801;23;20084;-87
2021/10/17 03:30:05;;;;;;;5.35;1.77;;;;;;;7.25;85.58;101317.53;6075119;23;20049;-86
2021/10/17 03:32:32;;;;;;;5.45;2.10;;;;;;;7.25;85.56;101327.94;6068341;23;20027;-86
2021/10/17 03:35:02;;;;;;;5.03;1.92;;;;;;;7.27;85.27;101318.44;6069795;23;20414;-86
2021/10/17 03:37:30;;;;;;;8.40;1.80;;;;;;;7.28;85.31;101317.56;6094333;23;20029;-86
2021/10/17 03:39:57;;;;;;;10.05;2.55;;;;;;;7.28;85.62;101317.56;6093270;23;20149;-86
2021/10/17 03:42:24;;;;;;;3.75;2.20;;;;;;;7.28;85.24;101319.31;6070520;23;20021;-87
2021/10/17 03:44:50;;;;;;;3.15;1.88;;;;;;;7.29;85.45;101311.50;6093514;23;20025;-86
2021/10/17 03:47:17;;;;;;;4.00;1.90;;;;;;;7.33;85.36;101319.38;6095569;23;20030;-86
2021/10/17 03:49:44;;;;;;;8.68;2.25;;;;;;;7.34;85.28;101308.09;6091976;23;20080;-86
2021/10/17 03:52:11;;;;;;;6.75;1.95;;;;;;;7.35;85.28;101313.31;6068685;23;20026;-87
2021/10/17 03:54:41;;;;;;;2.97;1.70;;;;;;;7.37;85.21;101308.16;6070857;23;20412;-86
2021/10/17 03:57:19;;;;;;;3.67;1.95;;;;;;;7.37;85.26;101308.16;6074505;23;20029;-86
2021/10/17 03:59:46;;;;;;;7.15;2.20;;;;;;;7.37;85.24;101306.41;6072007;23;20029;-86
2021/10/17 04:02:12;;;;;;;3.20;1.73;;;;;;;7.37;85.33;101305.56;6095237;23;20030;-86
2021/10/17 04:04:39;;;;;;;5.45;1.75;;;;;;;7.37;85.35;101306.41;6097189;23;20450;-87
2021/10/17 04:07:07;;;;;;;7.57;2.40;;;;;;;7.37;85.20;101305.56;6093001;23;20022;-86
2021/10/17 04:09:34;;;;;;;4.53;2.08;;;;;;;7.37;85.08;101309.03;6071666;23;20042;-87
2021/10/17 04:12:01;;;;;;;5.18;1.98;;;;;;;7.38;84.88;101305.56;6068880;23;20331;-86
2021/10/17 04:14:27;;;;;;;5.85;1.60;;;;;;;7.40;85.07;101313.41;6071187;23;20085;-86
2021/10/17 04:16:54;;;;;;;4.65;1.83;;;;;;;7.41;84.63;101303.00;6070088;23;20026;-87
2021/10/17 04:19:21;;;;;;;8.70;3.53;;;;;;;7.42;84.55;101298.69;6091388;23;20060;-86
2021/10/17 04:21:47;;;;;;;6.30;1.75;;;;;;;7.44;84.37;101295.25;6093431;23;20408;-86
2021/10/17 04:24:14;;;;;;;5.78;2.70;;;;;;;7.47;84.09;101297.03;6092795;23;20018;-86
2021/10/17 04:26:41;;;;;;;8.88;4.10;;;;;;;7.48;84.10;101293.53;6094797;23;20022;-86
2021/10/17 04:29:08;;;;;;;2.75;1.85;;;;;;;7.50;83.67;101291.84;6068771;23;20021;-85
2021/10/17 04:31:34;;;;;;;7.97;2.30;;;;;;;7.51;83.58;101296.19;6067858;23;20029;-86
2021/10/17 04:34:01;;;;;;;3.83;1.95;;;;;;;7.54;83.57;101300.59;6094734;23;20561;-87
2021/10/17 04:36:28;;;;;;;6.95;1.98;;;;;;;7.57;83.40;101298.00;6092103;23;20046;-86
2021/10/17 04:38:55;;;;;;;5.22;2.03;;;;;;;7.57;83.13;101298.00;6093919;23;20014;-86
2021/10/17 04:41:22;;;;;;;7.32;2.78;;;;;;;7.58;83.02;101290.22;6091150;23;20436;-86
2021/10/17 04:43:48;;;;;;;3.05;2.15;;;;;;;7.59;82.75;101286.75;6069175;23;20026;-86
2021/10/17 04:46:15;;;;;;;6.28;2.33;;;;;;;7.59;82.50;101289.34;6091111;23;20066;-87
2021/10/17 04:48:42;;;;;;;3.92;1.67;;;;;;;7.61;82.35;101302.41;6068943;23;20493;-86
2021/10/17 04:51:08;;;;;;;10.48;2.17;;;;;;;7.64;82.49;101299.84;6094097;23;20026;-86
2021/10/17 04:53:35;;;;;;;5.70;1.67;;;;;;;7.66;81.96;101298.13;6068836;23;20057;-86
2021/10/17 04:56:02;;;;;;;4.70;2.22;;;;;;;7.68;81.93;101304.25;6094273;23;20025;-86
2021/10/17 04:58:30;;;;;;;4.78;2.03;;;;;;;7.70;81.88;101299.91;6092288;23;20022;-86
2021/10/17 05:00:56;;;;;;;10.88;2.33;;;;;;;7.72;82.27;101303.44;6067258;23;20029;-87
2021/10/17 05:03:25;;;;;;;2.53;1.95;;;;;;;7.73;82.12;101299.97;6068496;23;20151;-86
2021/10/17 05:05:52;;;;;;;6.30;1.85;;;;;;;7.74;81.83;101304.34;6068369;23;20097;-86
2021/10/17 05:08:18;;;;;;;6.13;2.03;;;;;;;7.76;81.95;101320.00;6069101;23;20358;-86
2021/10/17 05:10:45;;;;;;;2.65;1.55;;;;;;;7.77;81.45;101314.78;6069983;23;20031;-86
2021/10/17 05:13:12;;;;;;;1.83;1.55;;;;;;;7.78;81.80;101315.66;6068565;23;20046;-86
2021/10/17 05:15:38;;;;;;;5.00;1.85;;;;;;;7.80;82.14;101320.91;6091456;23;20034;-86
2021/10/17 05:18:05;;;;;;;4.78;1.75;;;;;;;7.82;81.67;101314.84;6069634;23;20085;-86
2021/10/17 05:20:32;;;;;;;5.22;2.00;;;;;;;7.84;81.56;101317.50;6069926;23;20025;-86
2021/10/17 05:22:59;;;;;;;5.80;2.00;;;;;;;7.87;80.75;101314.91;6095071;23;20025;-86
2021/10/17 05:25:26;;;;;;;5.20;2.58;;;;;;;7.91;80.40;101316.69;6068791;23;20311;-87
2021/10/17 05:27:55;;;;;;;3.25;1.60;;;;;;;7.92;80.04;101316.72;6071081;23;20399;-86
2021/10/17 05:30:22;;;;;;;1.48;1.20;;;;;;;7.95;79.85;101323.69;6093019;23;20061;-87
2021/10/17 05:32:52;;;;;;;1.90;1.60;;;;;;;7.98;79.77;101318.53;6068350;23;20026;-86
2021/10/17 05:35:18;;;;;;;8.82;2.08;;;;;;;8.00;79.10;101315.94;6092093;23;20029;-86
2021/10/17 05:37:45;;;;;;;4.75;3.17;;;;;;;8.03;79.02;101319.47;6092719;23;20017;-86
2021/10/17 05:40:12;;;;;;;2.83;1.73;;;;;;;8.04;78.92;101312.50;6093780;23;20084;-86
2021/10/17 05:42:39;;;;;;;2.33;1.67;;;;;;;8.05;78.97;101316.88;6068449;23;20026;-86
2021/10/17 05:45:06;;;;;;;5.47;1.98;;;;;;;8.07;78.67;101325.56;6095102;23;20022;-86
2021/10/17 05:47:33;;;;;;;10.52;2.03;;;;;;;8.07;78.58;101318.66;6093755;23;20072;-87
2021/10/17 05:50:00;;;;;;;2.55;1.48;;;;;;;8.08;78.38;101317.78;6095331;23;20049;-87
2021/10/17 05:52:29;;;;;;;4.35;2.25;;;;;;;8.10;78.14;101315.19;6071769;23;20433;-86
2021/10/17 05:54:56;;;;;;;8.95;1.70;;;;;;;8.09;78.00;101318.66;6117237;23;20040;-86
2021/10/17 05:57:23;;;;;;;11.82;4.65;;;;;;;8.11;78.03;101323.03;6095754;23;20048;-87
2021/10/17 05:59:52;;;;;;;10.07;5.88;;;;;;;8.13;77.25;101323.03;6068468;23;20855;-86
2021/10/17 06:02:19;;;;;;;5.22;2.00;;;;;;;8.15;77.22;101323.06;6068158;23;20026;-86
2021/10/17 06:04:46;;;;;;;7.57;2.30;;;;;;;8.16;77.00;101324.81;6039645;23;20802;-85
2021/10/17 06:07:13;;;;;;;2.72;1.80;;;;;;;8.19;76.87;101325.75;6065519;23;20358;-86
2021/10/17 06:09:40;;;;;;;4.43;2.20;;;;;;;8.23;76.66;101326.66;6042118;23;20030;-86
2021/10/17 06:12:08;;;;;;;4.13;2.33;;;;;;;8.26;76.44;101335.38;6039611;23;20238;-86
2021/10/17 06:14:35;;;;;;;3.72;1.77;;;;;;;8.25;76.51;101327.53;6041223;23;20026;-86
2021/10/17 06:17:05;;;;;;;2.33;2.10;;;;;;;8.25;76.93;101330.13;6084862;23;20026;-86
2021/10/17 06:19:34;;;;;;;4.15;1.90;;;;;;;8.23;77.15;101326.66;6070694;23;20029;-86
2021/10/17 06:22:03;;;;;;;3.95;1.60;;;;;;;8.23;77.34;101329.25;6092938;23;20022;-86
2021/10/17 06:24:36;;;;;;;5.75;3.10;;;;;;;8.22;77.87;101323.16;6093658;23;20022;-86
2021/10/17 06:27:06;;;;;;;5.75;3.00;;;;;;;8.21;77.68;101333.56;6068143;23;20022;-85
2021/10/17 06:29:33;;;;;;;4.80;2.33;;;;;;;8.21;77.89;101338.78;6068892;23;20081;-86
2021/10/17 06:32:00;;;;;;;9.40;2.95;;;;;;;8.21;77.90;101336.19;6063842;23;20060;-86
2021/10/17 06:34:27;;;;;;;7.20;2.53;;;;;;;8.21;78.11;101344.00;6088606;23;20354;-85
2021/10/17 06:36:57;;;;;;;5.93;2.40;;;;;;;8.22;78.07;101357.06;6067383;23;20054;-86
2021/10/17 06:39:24;;;;;;;4.22;2.20;;;;;;;8.23;78.21;101350.13;6070994;23;20049;-86
2021/10/17 06:41:51;;;;;;;8.88;2.53;;;;;;;8.27;78.14;101365.81;6066303;23;20093;-86
2021/10/17 06:44:21;;;;;;;7.60;2.55;;;;;;;8.31;78.00;101363.25;6066962;23;20032;-86
2021/10/17 06:46:49;;;;;;;6.68;2.20;;;;;;;8.36;77.61;101362.44;6068323;23;20030;-85
2021/10/17 06:49:18;;;;;;;4.57;2.15;;;;;;;8.42;77.86;101369.47;6077097;23;20037;-86
2021/10/17 06:51:48;;;;;;;4.40;1.70;;;;;;;8.47;77.73;101359.13;6101705;23;20089;-85
2021/10/17 06:54:14;;;;;;;4.00;2.03;;;;;;;8.52;77.86;101360.91;6079052;23;20026;-86
2021/10/17 06:56:41;;;;;;;3.10;2.20;;;;;;;8.58;77.43;101365.34;6074227;23;20023;-86
2021/10/17 06:59:08;;;;;;;6.20;2.78;;;;;;;8.64;77.67;101359.31;6072448;23;20596;-86
2021/10/17 07:01:35;;;;;;;7.60;2.20;;;;;;;8.70;77.65;101364.59;6072892;23;20037;-86
2021/10/17 07:04:02;;;;;;;5.72;2.10;;;;;;;8.74;77.54;101369.84;6069211;23;20026;-86
2021/10/17 07:06:28;;;;;;;8.93;2.60;;;;;;;8.80;77.56;101360.31;6069883;23;20030;-86
2021/10/17 07:08:55;;;;;;;6.05;2.17;;;;;;;8.85;77.26;101366.47;6092463;23;20026;-86
2021/10/17 07:11:22;;;;;;;4.82;2.10;;;;;;;8.88;77.58;101362.16;6066510;23;20022;-86
2021/10/17 07:13:48;;;;;;;14.75;2.80;;;;;;;8.92;77.18;101369.16;6068524;23;20026;-86
2021/10/17 07:16:18;;;;;;;8.07;1.92;;;;;;;8.98;77.07;101367.47;6066365;23;20034;-85
2021/10/17 07:18:45;;;;;;;6.95;2.65;;;;;;;9.05;76.81;101374.50;6090313;23;20757;-86
2021/10/17 07:21:11;;;;;;;5.38;1.92;;;;;;;9.13;76.37;101377.19;6068281;23;20019;-87
2021/10/17 07:23:38;;;;;;;7.68;1.70;;;;;;;9.22;76.07;101374.66;6067949;23;20029;-86
2021/10/17 07:26:05;;;;;;;4.65;1.88;;;;;;;9.30;75.35;101379.94;6067669;23;20049;-86
2021/10/17 07:28:32;;;;;;;3.72;1.60;;;;;;;9.37;75.00;101380.00;6092633;23;20026;-86
2021/10/17 07:30:59;;;;;;;4.72;1.83;;;;;;;9.43;74.64;101380.03;6064795;23;20482;-86
2021/10/17 07:33:25;;;;;;;2.75;1.85;;;;;;;9.49;74.54;101384.44;6069674;23;20294;-86
2021/10/17 07:35:52;;;;;;;20.95;4.78;;;;;;;9.54;74.20;101389.69;6067140;23;20204;-86
2021/10/17 07:38:19;;;;;;;7.55;2.15;;;;;;;9.56;74.02;101385.34;6090676;23;20026;-86
2021/10/17 07:40:45;;;;;;;2.63;2.03;;;;;;;9.57;74.20;101385.34;6088804;23;20060;-86
2021/10/17 07:43:12;;;;;;;4.13;2.63;;;;;;;9.60;74.63;101389.72;6066109;23;20030;-87
2021/10/17 07:45:48;;;;;;;3.30;2.28;;;;;;;9.62;74.19;101384.50;6066761;23;20037;-86
2021/10/17 07:48:16;;;;;;;3.88;2.10;;;;;;;9.69;74.09;101396.78;6092964;23;20026;-85
2021/10/17 07:50:45;;;;;;;3.88;2.35;;;;;;;9.75;73.64;101389.84;6066639;23;20057;-84
2021/10/17 07:53:12;;;;;;;4.32;1.80;;;;;;;9.84;73.66;101388.13;6066209;23;20054;-86
2021/10/17 07:55:39;;;;;;;8.50;2.53;;;;;;;9.93;73.51;101390.78;6089358;23;20022;-87
2021/10/17 07:58:11;;;;;;;6.75;2.83;;;;;;;10.01;73.55;101391.75;6064177;23;20029;-87
2021/10/17 08:00:37;;;;;;;6.38;2.33;;;;;;;10.08;73.29;101393.50;6066551;23;20113;-87
2021/10/17 08:03:04;;;;;;;5.93;2.03;;;;;;;10.12;73.01;101391.78;6063838;23;20030;-87
2021/10/17 08:05:34;;;;;;;7.75;2.40;;;;;;;10.13;72.63;101396.16;6096712;23;20025;-86
2021/10/17 08:08:00;;;;;;;4.30;2.20;;;;;;;10.15;72.60;101390.91;6072656;23;20097;-86
2021/10/17 08:10:29;;;;;;;6.72;2.35;;;;;;;10.14;71.99;101400.50;6065887;23;20024;-86
2021/10/17 08:13:01;;;;;;;5.85;2.30;;;;;;;10.13;71.84;101400.50;6090283;23;20652;-86
2021/10/17 08:15:31;;;;;;;2.45;2.25;;;;;;;10.08;71.55;101403.09;6068080;23;20044;-86
2021/10/17 08:17:58;;;;;;;3.28;2.33;;;;;;;10.04;71.29;101402.19;6090310;23;20050;-87
2021/10/17 08:20:28;;;;;;;5.40;3.05;;;;;;;10.01;70.97;101404.81;6065046;23;20082;-86
2021/10/17 08:22:55;;;;;;;10.50;2.80;;;;;;;9.94;70.98;101411.72;6066704;23;20033;-86
2021/10/17 08:25:22;;;;;;;7.63;2.38;;;;;;;9.90;71.14;101409.97;6068502;23;20022;-86
2021/10/17 08:27:49;;;;;;;5.93;2.45;;;;;;;9.89;70.83;101408.19;6090620;23;20030;-87
2021/10/17 08:30:16;;;;;;;5.97;2.90;;;;;;;9.88;71.27;101409.09;6092927;23;20026;-86
2021/10/17 08:32:43;;;;;;;6.30;2.58;;;;;;;9.88;70.52;101408.19;6088487;23;20026;-86
2021/10/17 08:35:12;;;;;;;5.18;2.60;;;;;;;9.91;70.55;101413.47;6068425;23;20356;-86
2021/10/17 08:37:38;;;;;;;8.48;2.92;;;;;;;9.95;70.21;101412.63;6068023;23;20081;-85
2021/10/17 08:40:08;;;;;;;8.90;3.22;;;;;;;10.00;69.67;101423.09;6065258;23;20072;-86
2021/10/17 08:42:35;;;;;;;6.63;3.13;;;;;;;10.01;69.62;101415.28;6065631;23;20100;-86
2021/10/17 08:45:07;;;;;;;8.10;2.22;;;;;;;10.03;69.53;101420.50;6065472;23;20029;-86
2021/10/17 08:47:35;;;;;;;7.20;2.80;;;;;;;10.05;68.50;101419.66;6089492;23;20109;-86
2021/10/17 08:50:05;;;;;;;8.55;2.70;;;;;;;10.03;68.41;101421.38;6089185;23;20030;-86
2021/10/17 08:52:33;;;;;;;6.05;2.80;;;;;;;10.00;68.96;101423.97;6066676;23;20037;-86
2021/10/17 08:55:00;;;;;;;6.75;3.13;;;;;;;9.98;68.92;101415.25;6065871;23;20026;-86
2021/10/17 08:57:27;;;;;;;6.40;2.45;;;;;;;9.97;69.04;101413.47;6088783;23;20014;-86
2021/10/17 08:59:56;;;;;;;4.45;2.70;;;;;;;9.99;69.35;101419.59;6089232;23;20101;-86
2021/10/17 09:02:24;;;;;;;9.65;3.22;;;;;;;10.03;69.20;101415.28;6063579;23;20101;-86
2021/10/17 09:05:08;;;;;;;11.88;4.90;;;;;;;10.03;68.74;101412.66;6066901;23;20018;-86
2021/10/17 09:07:35;;;;;;;5.15;2.83;;;;;;;10.04;68.84;101417.03;6072486;23;20112;-87
2021/10/17 09:10:17;;;;;;;8.45;3.33;;;;;;;10.06;68.54;101426.66;6072232;23;20030;-86
2021/10/17 09:12:48;;;;;;;8.20;3.10;;;;;;;10.09;68.28;101423.16;6069949;23;20597;-86
2021/10/17 09:15:27;;;;;;;8.00;4.18;;;;;;;10.12;68.18;101417.03;6071372;23;20044;-86
2021/10/17 09:18:19;;;;;;;11.63;2.85;;;;;;;10.14;66.84;101421.41;6065847;23;20093;-86
2021/10/17 09:20:48;;;;;;;7.80;2.65;;;;;;;10.24;67.32;101417.13;6041976;23;20030;-86
2021/10/17 09:23:22;;;;;;;6.75;2.95;;;;;;;10.33;66.71;101411.94;6065116;23;20084;-84
2021/10/17 09:25:56;;;;;;;34.83;5.82;;;;;;;10.38;66.99;101412.00;6064832;23;20044;-86
2021/10/17 09:28:39;;;;;;;6.03;2.58;;;;;;;10.37;66.09;101408.47;6042340;23;20124;-86
2021/10/17 09:31:14;;;;;;;7.80;3.22;;;;;;;10.40;66.06;101413.75;6077519;23;20821;-87
2021/10/17 09:33:51;;;;;;;7.50;3.30;;;;;;;10.46;66.23;101415.50;6046424;23;20480;-87
2021/10/17 09:36:34;;;;;;;8.75;2.47;;;;;;;10.49;66.21;101410.28;6094191;23;20357;-86
2021/10/17 09:39:12;;;;;;;4.70;2.47;;;;;;;10.57;65.72;101416.44;6091446;23;20442;-86
2021/10/17 09:41:51;;;;;;;8.25;3.22;;;;;;;10.62;65.80;101411.19;6071040;23;20125;-86
2021/10/17 09:44:45;;;;;;;7.72;3.03;;;;;;;10.76;65.18;101413.84;6068446;23;20490;-87
2021/10/17 09:47:12;;;;;;;9.43;3.08;;;;;;;10.92;65.32;101414.75;6094775;23;20025;-87
2021/10/17 09:49:43;;;;;;;8.57;3.20;;;;;;;11.14;64.36;101414.78;6093584;23;20025;-85
2021/10/17 09:52:10;;;;;;;6.22;3.20;;;;;;;11.36;63.73;101411.31;6071403;23;20113;-87
2021/10/17 09:54:38;;;;;;;11.95;3.60;;;;;;;11.42;62.83;101411.31;6119945;23;20094;-86
2021/10/17 09:57:11;;;;;;;11.07;3.63;;;;;;;11.53;62.85;101413.06;6094254;23;20025;-87
2021/10/17 09:59:38;;;;;;;9.63;3.30;;;;;;;11.64;61.98;101413.03;6097737;23;20887;-87
2021/10/17 10:02:09;;;;;;;6.95;2.85;;;;;;;11.67;61.74;101413.06;6092210;23;20621;-86
2021/10/17 10:04:41;;;;;;;10.15;3.67;;;;;;;11.78;62.06;101413.88;6096294;23;20523;-87
2021/10/17 10:07:11;;;;;;;9.23;2.70;;;;;;;12.02;61.07;101409.47;6065321;23;20090;-87
2021/10/17 10:09:39;;;;;;;8.18;3.08;;;;;;;12.19;60.81;101418.19;6093063;23;20026;-86
2021/10/17 10:12:15;;;;;;;6.88;2.60;;;;;;;12.32;60.55;101408.53;6090397;23;20022;-87
2021/10/17 10:14:43;;;;;;;11.32;2.67;;;;;;;12.39;59.72;101412.00;6091279;23;20109;-87
2021/10/17 10:17:10;;;;;;;5.78;2.72;;;;;;;12.47;59.88;101418.06;6093519;23;20042;-87
2021/10/17 10:19:38;;;;;;;5.20;2.75;;;;;;;12.56;59.70;101418.03;6067761;23;20053;-87
2021/10/17 10:22:05;;;;;;;7.22;3.13;;;;;;;12.65;59.67;101419.75;6089461;23;20058;-87
2021/10/17 10:24:32;;;;;;;7.82;2.92;;;;;;;12.79;58.93;101424.94;6091166;23;20042;-86
2021/10/17 10:27:02;;;;;;;10.00;2.55;;;;;;;12.95;58.67;101423.06;6068258;23;20022;-86
2021/10/17 10:29:32;;;;;;;6.75;2.17;;;;;;;12.98;58.61;101412.53;6092250;23;20037;-87
2021/10/17 10:32:06;;;;;;;5.70;2.28;;;;;;;13.06;58.40;101425.63;6093461;23;20034;-87
2021/10/17 10:34:32;;;;;;;7.25;2.53;;;;;;;13.11;58.30;101422.97;6096207;23;20021;-87
2021/10/17 10:37:15;;;;;;;5.07;2.88;;;;;;;13.04;57.39;101420.38;6097032;23;20034;-86
2021/10/17 10:40:01;;;;;;;6.05;2.08;;;;;;;12.98;57.82;101416.94;6100903;23;20491;-86
2021/10/17 10:42:54;;;;;;;8.45;2.88;;;;;;;13.02;57.27;101419.53;6100035;23;20033;-86
2021/10/17 10:45:37;;;;;;;6.10;2.22;;;;;;;13.00;57.62;101412.53;6074600;23;20447;-87
2021/10/17 10:48:19;;;;;;;7.53;3.05;;;;;;;13.11;58.04;101417.72;6098665;23;20109;-86
2021/10/17 10:50:59;;;;;;;4.90;2.92;;;;;;;13.26;57.69;101421.97;6100114;23;20104;-86
2021/10/17 10:53:54;;;;;;;6.63;2.38;;;;;;;13.46;57.09;101420.09;6075768;23;20023;-87
2021/10/17 10:56:57;;;;;;;5.50;2.80;;;;;;;13.76;57.32;101431.22;6097773;23;20054;-83
2021/10/17 10:59:29;;;;;;;7.63;2.33;;;;;;;13.98;56.90;101421.34;6057875;23;20018;-86
2021/10/17 11:02:07;;;;;;;5.50;2.72;;;;;;;14.06;56.25;101426.53;6096826;23;20102;-86
2021/10/17 11:04:56;;;;;;;7.50;2.65;;;;;;;13.98;55.19;101428.38;6096255;23;20399;-85
2021/10/17 11:07:32;;;;;;;8.18;2.22;;;;;;;13.71;55.10;101428.66;6100352;23;20026;-85
2021/10/17 11:10:25;;;;;;;8.80;2.55;;;;;;;13.48;54.97;101428.84;6127129;23;20061;-85
2021/10/17 11:13:03;;;;;;;5.40;2.15;;;;;;;13.37;55.65;101425.44;6128920;23;20528;-85
2021/10/17 11:15:38;;;;;;;7.13;2.40;;;;;;;13.33;55.38;101421.91;6103565;23;20105;-85
2021/10/17 11:18:12;;;;;;;8.30;2.20;;;;;;;13.19;56.20;101421.16;6105553;23;20438;-85
2021/10/17 11:20:50;;;;;;;6.57;2.13;;;;;;;13.11;55.35;101420.34;6105153;23;20098;-85
2021/10/17 11:23:27;;;;;;;7.03;2.20;;;;;;;13.14;56.50;101420.31;6081170;23;20029;-86
2021/10/17 11:26:19;;;;;;;2.90;1.83;;;;;;;13.19;56.48;101429.03;6106115;23;20018;-85
2021/10/17 11:28:53;;;;;;;5.35;2.35;;;;;;;13.16;56.65;101424.69;6100906;23;20353;-85
2021/10/17 11:31:24;;;;;;;4.28;2.22;;;;;;;13.15;56.34;101427.31;6079359;23;20032;-85
2021/10/17 11:33:55;;;;;;;8.00;1.88;;;;;;;13.16;56.42;101422.06;6104055;23;20081;-85
2021/10/17 11:36:23;;;;;;;6.00;2.13;;;;;;;13.15;56.08;101425.56;6104560;23;20025;-86
2021/10/17 11:38:58;;;;;;;5.22;2.03;;;;;;;13.16;56.15;101426.44;6106271;23;20026;-86
2021/10/17 11:41:26;;;;;;;6.22;2.00;;;;;;;13.15;55.99;101425.56;6083151;23;20026;-87